Time;durP1;ratioP1;P1;durP2;ratioP2;P2;SDS_P1;SDS_P2;PMS_P1;PMS_P2;Temp;Humidity;BMP_temperature;BMP_pressure;BME280_temperature;BME280_humidity;BME280_pressure;Samples;Min_cycle;Max_cycle;Signal;HPM_P1;HPM_P2
2023/10/18 00:13:23;;;;;;;27.88;15.35;;;;;;;3.01;71.77;100447.16;30969020;28;96902;-62
2023/10/18 00:28:23;;;;;;;27.10;15.20;;;;;;;2.83;72.01;100443.25;30968920;28;97030;-61
2023/10/18 00:43:26;;;;;;;33.15;18.83;;;;;;;2.69;72.49;100439.88;30965795;28;102002;-63
2023/10/18 00:58:29;;;;;;;35.50;18.90;;;;;;;2.61;72.69;100438.75;30966186;28;97121;-59
2023/10/18 01:13:29;;;;;;;41.13;23.33;;;;;;;2.59;72.98;100438.88;30964863;28;96774;-62
2023/10/18 01:28:30;;;;;;;41.60;22.17;;;;;;;2.60;72.88;100427.41;30963809;28;97472;-60
2023/10/18 01:43:30;;;;;;;33.13;19.27;;;;;;;2.73;73.46;100421.22;30961301;28;97136;-62
2023/10/18 01:58:30;;;;;;;35.08;18.50;;;;;;;2.59;73.45;100402.03;30959850;28;102688;-61
2023/10/18 02:13:31;;;;;;;28.95;16.27;;;;;;;2.35;74.04;100387.13;30959447;28;97044;-60
2023/10/18 02:28:32;;;;;;;35.10;15.93;;;;;;;2.10;74.13;100376.72;30959005;28;97174;-61
2023/10/18 02:43:33;;;;;;;29.38;14.82;;;;;;;1.83;74.47;100383.84;30956841;28;97266;-60
2023/10/18 02:58:37;;;;;;;30.30;16.42;;;;;;;1.67;74.61;100397.22;30955444;28;97030;-60
2023/10/18 03:13:38;;;;;;;33.10;16.63;;;;;;;1.76;74.43;100406.22;30969971;28;97208;-60
2023/10/18 03:28:43;;;;;;;23.70;14.48;;;;;;;1.62;74.51;100396.69;30972697;28;97084;-61
2023/10/18 03:43:48;;;;;;;27.57;15.97;;;;;;;1.41;74.70;100385.06;30970533;28;97013;-59
2023/10/18 03:58:49;;;;;;;30.60;14.50;;;;;;;1.14;74.91;100372.91;30970125;28;97196;-60
2023/10/18 04:13:51;;;;;;;22.75;14.20;;;;;;;0.77;74.49;100354.41;30965287;28;96695;-64
2023/10/18 04:28:57;;;;;;;29.42;16.25;;;;;;;0.45;75.13;100334.66;30965645;28;97567;-63
2023/10/18 04:44:11;;;;;;;24.38;14.50;;;;;;;0.31;75.33;100329.47;30964484;28;96703;-61
2023/10/18 05:14:19;;;;;;;25.90;12.80;;;;;;;0.03;75.65;100346.13;30961949;28;97773;-60
2023/10/18 05:29:19;;;;;;;25.15;12.38;;;;;;;0.04;75.92;100332.09;30961642;28;97256;-62
2023/10/18 05:44:20;;;;;;;24.30;13.80;;;;;;;0.29;76.15;100345.28;30957851;28;98328;-62
2023/10/18 06:14:40;;;;;;;23.70;12.70;;;;;;;0.96;75.79;100341.72;30957632;28;97116;-62
2023/10/18 06:29:42;;;;;;;24.90;13.85;;;;;;;1.73;75.72;100347.84;30954747;28;97155;-65
2023/10/18 06:44:43;;;;;;;29.45;14.27;;;;;;;2.54;75.38;100351.56;30962248;28;96783;-60
2023/10/18 06:59:48;;;;;;;27.02;15.02;;;;;;;4.47;76.13;100340.94;30973191;28;96920;-62
2023/10/18 07:14:48;;;;;;;20.58;12.43;;;;;;;6.83;74.00;100335.41;30972858;28;97475;-66
2023/10/18 07:29:49;;;;;;;21.83;12.45;;;;;;;8.74;71.54;100330.28;30972247;28;97225;-64
2023/10/18 07:45:02;;;;;;;21.33;12.00;;;;;;;10.91;69.15;100339.63;30965962;28;96718;-61
2023/10/18 08:00:21;;;;;;;21.52;12.55;;;;;;;12.60;65.15;100333.00;30967018;28;97292;-62
2023/10/18 08:15:22;;;;;;;19.40;12.50;;;;;;;18.00;59.96;100325.81;30968200;28;97425;-65
2023/10/18 08:31:02;;;;;;;17.60;11.77;;;;;;;25.49;44.35;100314.84;30963983;28;97137;-66
2023/10/18 08:46:05;;;;;;;19.20;12.03;;;;;;;29.65;34.15;100316.00;30962567;28;97306;-61
2023/10/18 09:01:06;;;;;;;14.30;9.37;;;;;;;33.05;26.84;100298.09;30961905;28;97141;-62
2023/10/18 09:16:11;;;;;;;13.02;9.35;;;;;;;37.12;21.58;100282.47;30960814;28;97463;-61
2023/10/18 09:31:16;;;;;;;15.37;9.17;;;;;;;38.07;18.32;100282.16;30959663;28;98112;-63
2023/10/18 09:46:18;;;;;;;17.47;9.10;;;;;;;39.66;16.33;100246.22;30956670;28;97109;-63
2023/10/18 10:02:07;;;;;;;7.57;5.10;;;;;;;40.51;14.26;100229.50;30956351;28;96771;-62
2023/10/18 10:17:07;;;;;;;9.80;5.13;;;;;;;42.48;11.94;100209.19;30958256;28;97410;-65
2023/10/18 10:32:10;;;;;;;7.53;4.40;;;;;;;43.17;11.76;100183.22;30976627;28;97205;-64
2023/10/18 10:47:29;;;;;;;7.80;3.97;;;;;;;45.58;9.89;100165.47;30973761;28;97197;-64
2023/10/18 11:02:40;;;;;;;6.50;3.70;;;;;;;45.08;9.16;100132.78;30974220;28;97358;-64
2023/10/18 11:17:42;;;;;;;6.57;3.60;;;;;;;45.17;9.48;100112.69;30972419;28;97574;-62
2023/10/18 11:32:44;;;;;;;10.67;3.63;;;;;;;45.52;9.00;100093.19;30969128;28;97302;-63
2023/10/18 11:47:50;;;;;;;5.10;2.70;;;;;;;46.86;8.30;100087.91;30967355;28;97365;-62
2023/10/18 12:02:51;;;;;;;6.50;2.70;;;;;;;45.64;8.48;100067.38;30969564;28;97463;-61
2023/10/18 12:17:52;;;;;;;5.63;2.30;;;;;;;44.61;8.39;100047.84;30966754;28;97532;-64
2023/10/18 12:32:52;;;;;;;4.05;2.50;;;;;;;46.54;7.60;100021.47;30964218;28;97468;-61
2023/10/18 12:47:53;;;;;;;5.10;3.33;;;;;;;43.90;8.38;100010.34;30962608;28;97447;-63
2023/10/18 13:03:38;;;;;;;6.05;2.80;;;;;;;39.32;10.33;99973.66;30962451;28;97141;-61
2023/10/18 13:18:14;;;;;;;8.03;3.33;;;;;;;36.80;11.82;99946.44;30950475;28;97139;-61
2023/10/18 13:33:14;;;;;;;5.22;2.70;;;;;;;41.03;9.58;99931.00;30960550;28;97456;-60
2023/10/18 13:48:15;;;;;;;4.53;2.70;;;;;;;39.81;9.83;99918.31;30957958;28;97387;-64
2023/10/18 14:03:15;;;;;;;6.03;3.50;;;;;;;39.30;10.18;99898.03;30956299;28;97333;-60
2023/10/18 14:18:15;;;;;;;4.57;2.88;;;;;;;-147.20;100.00;63046.97;31218717;28;98262;-60
2023/10/18 14:33:16;;;;;;;4.18;2.70;;;;;;;29.56;16.86;99873.19;31191794;28;96742;-61
2023/10/18 14:48:16;;;;;;;7.70;3.53;;;;;;;27.08;18.34;99856.78;30954056;28;112039;-62
2023/10/18 15:03:18;;;;;;;9.77;3.20;;;;;;;24.67;20.33;99841.28;30960750;28;97206;-61
2023/10/18 15:18:18;;;;;;;5.33;2.70;;;;;;;19.37;25.47;99824.59;30973102;28;96668;-62
2023/10/18 15:33:19;;;;;;;7.30;4.60;;;;;;;16.19;29.40;99818.97;31003183;28;100811;-62
2023/10/18 15:48:20;;;;;;;7.33;3.53;;;;;;;13.71;32.97;99799.63;31276713;28;97121;-59
2023/10/18 16:03:20;;;;;;;16.13;5.57;;;;;;;12.24;35.95;99806.63;31498965;28;23281;-62
2023/10/18 16:18:20;;;;;;;14.80;6.40;;;;;;;11.09;39.18;99791.06;31496511;28;27037;-65
2023/10/18 16:33:23;;;;;;;13.98;5.22;;;;;;;10.24;40.97;99787.66;31495944;28;20037;-60
2023/10/18 16:48:23;;;;;;;16.47;7.63;;;;;;;9.64;42.90;99783.88;31493413;28;20405;-61
2023/10/18 17:03:27;;;;;;;10.68;6.57;;;;;;;9.06;44.91;99778.78;31494388;28;20155;-59
2023/10/18 17:18:28;;;;;;;12.53;7.00;;;;;;;8.54;46.63;99771.22;31493080;28;20033;-63
2023/10/18 17:33:30;;;;;;;14.70;8.50;;;;;;;8.12;48.02;99765.91;31490912;28;20497;-60
2023/10/18 17:48:30;;;;;;;22.00;10.23;;;;;;;7.72;49.38;99738.34;31488123;28;20057;-63
2023/10/18 18:03:33;;;;;;;18.75;9.23;;;;;;;7.28;50.33;99739.38;31488585;28;20829;-61
2023/10/18 18:18:33;;;;;;;23.30;13.63;;;;;;;7.05;51.99;99719.72;31488945;28;20036;-62
2023/10/18 18:33:34;;;;;;;21.30;11.15;;;;;;;6.72;53.35;99701.84;31141951;28;97123;-61
2023/10/18 18:48:34;;;;;;;25.25;12.93;;;;;;;6.44;54.01;99694.09;30974985;28;109571;-60
2023/10/18 19:03:35;;;;;;;22.38;11.52;;;;;;;6.18;55.17;99680.00;30975915;28;110000;-60
2023/10/18 19:18:35;;;;;;;17.98;10.25;;;;;;;5.92;56.48;99672.84;30973257;28;97109;-60
2023/10/18 19:33:37;;;;;;;22.30;11.98;;;;;;;5.67;57.42;99659.44;30970918;28;97050;-62
2023/10/18 19:48:38;;;;;;;27.13;13.10;;;;;;;5.47;58.46;99652.59;30968822;28;96759;-61
2023/10/18 20:03:39;;;;;;;24.33;12.13;;;;;;;5.33;59.18;99638.97;30969410;28;96665;-60
2023/10/18 20:18:39;;;;;;;23.85;12.07;;;;;;;5.21;59.80;99619.03;30966042;28;96627;-59
2023/10/18 20:33:40;;;;;;;20.23;11.70;;;;;;;5.12;60.34;99618.09;30965305;28;98696;-60
2023/10/18 20:48:47;;;;;;;26.58;12.35;;;;;;;4.94;60.94;99610.16;30966403;28;97361;-59
2023/10/18 21:03:49;;;;;;;21.63;12.05;;;;;;;4.81;62.02;99593.84;30963908;28;97023;-59
2023/10/18 21:18:49;;;;;;;22.70;10.90;;;;;;;4.69;62.62;99578.22;30962963;28;97082;-60
2023/10/18 21:33:56;;;;;;;20.50;11.52;;;;;;;4.62;63.34;99558.69;30960802;28;97356;-63
2023/10/18 21:48:57;;;;;;;26.00;12.65;;;;;;;4.54;63.98;99540.13;30960673;28;96783;-62
2023/10/18 22:04:03;;;;;;;26.42;14.13;;;;;;;4.46;64.19;99518.94;30960498;28;97022;-60
2023/10/18 22:19:03;;;;;;;28.77;14.43;;;;;;;4.43;64.68;99508.66;30977224;28;97450;-62
2023/10/18 22:34:03;;;;;;;28.73;15.32;;;;;;;4.34;65.09;99484.81;30982333;28;97074;-59
2023/10/18 22:49:22;;;;;;;23.25;14.70;;;;;;;4.22;65.37;99467.53;31183821;28;97720;-63
2023/10/18 23:04:24;;;;;;;24.38;14.10;;;;;;;4.16;66.18;99447.06;31509995;28;20045;-59
2023/10/18 23:34:27;;;;;;;22.52;13.10;;;;;;;4.06;66.79;99421.56;31507083;28;20044;-61
2023/10/18 23:49:29;;;;;;;21.50;12.57;;;;;;;4.05;67.02;99417.28;31505724;28;20413;-63
